createdAt,value
2023-03-23T16:01:42.920Z,16.11
2023-03-23T16:05:45.558Z,16.21
2023-03-23T16:09:47.736Z,16.14
2023-03-23T16:13:50.179Z,16.07
2023-03-23T16:17:52.277Z,16.09
2023-03-23T16:21:54.422Z,16.10
2023-03-23T16:25:56.542Z,15.84
2023-03-23T16:30:04.226Z,15.83
2023-03-23T16:34:07.176Z,15.70
2023-03-23T16:38:16.383Z,15.54
2023-03-23T16:42:18.415Z,15.52
2023-03-23T16:46:20.462Z,15.28
2023-03-23T16:50:22.664Z,15.19
2023-03-23T16:54:24.720Z,15.26
2023-03-23T16:58:26.817Z,15.13
2023-03-23T17:02:28.998Z,15.06
2023-03-23T17:06:31.266Z,15.13
2023-03-23T17:10:33.385Z,14.90
2023-03-23T17:14:35.838Z,14.96
2023-03-23T17:18:37.856Z,14.82
2023-03-23T17:22:40.676Z,14.64
2023-03-23T17:26:42.666Z,14.59
2023-03-23T17:30:45.693Z,14.60
2023-03-23T17:34:47.722Z,14.51
2023-03-23T17:38:50.516Z,14.40
2023-03-23T17:42:52.524Z,14.30
2023-03-23T17:46:56.537Z,14.46
2023-03-23T17:50:59.208Z,14.46
2023-03-23T17:55:01.436Z,14.35
2023-03-23T17:59:03.657Z,14.36
2023-03-23T18:03:06.009Z,14.36
2023-03-23T18:07:08.594Z,14.22
2023-03-23T18:11:11.131Z,14.29
2023-03-23T18:15:13.350Z,14.34
2023-03-23T18:19:16.621Z,14.44
2023-03-23T18:23:18.849Z,14.41
2023-03-23T18:27:21.174Z,14.39
2023-03-23T18:31:23.240Z,14.33
2023-03-23T18:35:25.818Z,14.35
2023-03-23T18:39:28.035Z,14.19
2023-03-23T18:43:31.376Z,14.16
2023-03-23T18:47:34.162Z,14.06
2023-03-23T18:51:37.687Z,14.23
2023-03-23T18:55:39.717Z,14.23
2023-03-23T18:59:41.813Z,14.21
2023-03-23T19:03:45.367Z,14.17
2023-03-23T19:07:47.715Z,14.19
2023-03-23T19:11:49.898Z,14.18
2023-03-23T19:15:52.911Z,14.27
2023-03-23T19:19:55.039Z,14.25
2023-03-23T19:23:57.641Z,14.31
2023-03-23T19:28:51.721Z,14.33
2023-03-23T19:32:21.722Z,14.27
2023-03-23T19:36:24.894Z,14.32
2023-03-23T19:40:39.051Z,14.04
2023-03-23T19:44:42.923Z,14.07
2023-03-23T19:48:46.362Z,14.07
2023-03-23T19:52:48.696Z,14.19
2023-03-23T19:56:50.858Z,14.25
2023-03-23T20:00:53.710Z,14.27
2023-03-23T20:04:56.625Z,14.23
2023-03-23T20:09:00.364Z,14.25
2023-03-23T20:13:04.682Z,14.17
2023-03-23T20:17:09.787Z,14.17
2023-03-23T20:21:14.835Z,14.23
2023-03-23T20:25:16.866Z,14.23
2023-03-23T20:29:18.976Z,14.12
2023-03-23T20:33:21.088Z,14.07
2023-03-23T20:37:24.064Z,14.00
2023-03-23T20:41:27.377Z,14.01
2023-03-23T20:45:29.434Z,13.99
2023-03-23T20:49:32.040Z,13.95
2023-03-23T20:53:35.223Z,13.96
2023-03-23T20:57:40.170Z,13.90
2023-03-23T21:01:42.798Z,13.86
2023-03-23T21:05:45.082Z,13.86
2023-03-23T21:09:47.304Z,13.90
2023-03-23T21:13:50.670Z,13.78
2023-03-23T21:17:52.763Z,13.68
2023-03-23T21:21:57.135Z,13.64
2023-03-23T21:26:06.006Z,13.59
2023-03-23T21:30:09.804Z,13.44
2023-03-23T21:34:13.939Z,13.56
2023-03-23T21:38:19.773Z,13.40
2023-03-23T21:42:30.039Z,13.48
2023-03-23T21:46:32.383Z,13.41
2023-03-23T21:50:38.220Z,12.93
2023-03-23T21:54:41.210Z,13.35
2023-03-23T21:58:43.499Z,13.22
2023-03-23T22:02:45.755Z,13.11
2023-03-23T22:06:48.005Z,12.98
2023-03-23T22:11:00.719Z,12.82
2023-03-23T22:15:08.214Z,12.78
2023-03-23T22:19:10.207Z,12.26
2023-03-23T22:23:12.314Z,12.22
2023-03-23T22:27:14.475Z,12.14
2023-03-23T22:31:22.078Z,12.12
2023-03-23T22:35:24.262Z,12.28
2023-03-23T22:39:26.400Z,12.12
2023-03-23T22:43:28.836Z,12.17
2023-03-23T22:47:31.491Z,12.08
2023-03-23T22:51:33.642Z,12.53
2023-03-23T22:55:35.906Z,12.39
2023-03-23T22:59:38.051Z,12.52
2023-03-23T23:03:40.584Z,12.39
2023-03-23T23:07:42.812Z,12.30
2023-03-23T23:11:44.898Z,12.26
2023-03-23T23:15:49.668Z,12.52
2023-03-23T23:19:53.382Z,12.27
2023-03-23T23:23:55.477Z,12.02
2023-03-23T23:27:59.757Z,12.11
2023-03-23T23:32:02.616Z,12.01
2023-03-23T23:36:05.183Z,12.45
2023-03-23T23:40:08.120Z,12.59
2023-03-23T23:44:10.410Z,12.45
2023-03-23T23:48:12.664Z,12.73
2023-03-23T23:52:15.824Z,12.99
2023-03-23T23:56:19.340Z,12.86
